Time;durP1;ratioP1;P1;durP2;ratioP2;P2;SDS_P1;SDS_P2;PMS_P1;PMS_P2;Temp;Humidity;BMP_temperature;BMP_pressure;BME280_temperature;BME280_humidity;BME280_pressure;Samples;Min_cycle;Max_cycle;Signal;HPM_P1;HPM_P2
2021/06/22 00:01:00;;;;;;;0.10;0.10;;;17.70;99.90;;;;;;4953180;28;20031;-76
2021/06/22 00:03:25;;;;;;;0.10;0.10;;;17.80;99.90;;;;;;4953445;28;20494;-76
2021/06/22 00:05:51;;;;;;;0.10;0.10;;;17.70;99.90;;;;;;4953636;28;20023;-76
2021/06/22 00:08:17;;;;;;;3.78;0.50;;;17.80;99.90;;;;;;4953104;28;20023;-75
2021/06/22 00:10:43;;;;;;;0.10;0.10;;;17.60;99.90;;;;;;4970533;28;20030;-75
2021/06/22 00:13:08;;;;;;;0.10;0.10;;;17.50;99.90;;;;;;4970488;28;20038;-76
2021/06/22 00:15:34;;;;;;;0.10;0.10;;;17.60;99.90;;;;;;4970451;28;20027;-76
2021/06/22 00:18:01;;;;;;;1.63;1.52;;;17.60;99.90;;;;;;4969161;28;20375;-76
2021/06/22 00:20:27;;;;;;;7.75;4.78;;;17.70;99.90;;;;;;4970265;28;20561;-76
2021/06/22 00:22:54;;;;;;;0.20;0.20;;;17.70;99.90;;;;;;4970209;28;20106;-76
2021/06/22 00:25:21;;;;;;;0.20;0.20;;;17.90;99.90;;;;;;4953773;28;20080;-76
2021/06/22 00:27:49;;;;;;;2.17;0.28;;;17.80;99.90;;;;;;4959270;28;20026;-75
2021/06/22 00:32:46;;;;;;;0.20;0.20;;;17.80;99.90;;;;;;5075277;28;20052;-72
2021/06/22 00:35:14;;;;;;;0.10;0.10;;;17.80;99.90;;;;;;5077865;28;20272;-73
2021/06/22 00:37:42;;;;;;;0.10;0.10;;;17.80;99.90;;;;;;5060036;28;20017;-73
2021/06/22 00:40:09;;;;;;;0.98;0.73;;;17.60;99.90;;;;;;5060309;28;20025;-73
2021/06/22 00:42:36;;;;;;;0.45;0.45;;;17.50;99.90;;;;;;5078205;28;20039;-73
2021/06/22 00:45:02;;;;;;;1.98;0.30;;;17.50;99.90;;;;;;5077961;28;20031;-73
2021/06/22 00:47:29;;;;;;;0.10;0.10;;;17.40;99.90;;;;;;5078149;28;20055;-73
2021/06/22 00:49:55;;;;;;;16.90;1.25;;;17.60;99.90;;;;;;5078167;28;20021;-73
2021/06/22 00:52:23;;;;;;;0.10;0.10;;;17.50;99.90;;;;;;5078196;28;20047;-73
2021/06/22 00:54:49;;;;;;;0.00;0.00;;;17.60;99.90;;;;;;5060304;28;20373;-73
2021/06/22 00:57:15;;;;;;;0.10;0.10;;;17.90;99.90;;;;;;5060129;28;20111;-73
2021/06/22 00:59:42;;;;;;;0.00;0.00;;;18.10;99.90;;;;;;5060258;28;20048;-73
2021/06/22 01:02:07;;;;;;;0.10;0.10;;;18.40;99.90;;;;;;5078052;28;20020;-73
2021/06/22 01:04:34;;;;;;;0.10;0.10;;;18.30;99.90;;;;;;5078215;28;20095;-73
2021/06/22 01:07:02;;;;;;;0.00;0.00;;;18.50;99.90;;;;;;5078067;28;20039;-73
2021/06/22 01:09:29;;;;;;;0.10;0.10;;;18.50;99.90;;;;;;5043217;28;20028;-73
2021/06/22 01:11:56;;;;;;;0.20;0.20;;;18.50;99.90;;;;;;5077941;28;20114;-73
2021/06/22 01:14:22;;;;;;;0.00;0.00;;;18.60;99.90;;;;;;5078121;28;20060;-73
2021/06/22 01:16:48;;;;;;;0.22;0.22;;;18.60;99.90;;;;;;5060118;28;20028;-73
2021/06/22 01:19:14;;;;;;;0.10;0.10;;;18.30;99.90;;;;;;5043080;28;20533;-73
2021/06/22 01:21:41;;;;;;;0.03;0.03;;;18.50;99.90;;;;;;5077916;28;20028;-73
2021/06/22 01:24:10;;;;;;;0.25;0.15;;;18.50;99.90;;;;;;5078002;28;20052;-73
2021/06/22 01:26:39;;;;;;;0.10;0.10;;;18.40;99.90;;;;;;5059952;28;20020;-73
2021/06/22 01:29:08;;;;;;;0.10;0.10;;;18.10;99.90;;;;;;5077798;28;20025;-73
2021/06/22 01:31:35;;;;;;;0.00;0.00;;;18.00;99.90;;;;;;5059719;28;20449;-73
2021/06/22 01:34:00;;;;;;;0.10;0.10;;;18.00;99.90;;;;;;5077879;28;20108;-73
2021/06/22 01:36:29;;;;;;;0.20;0.20;;;18.10;99.90;;;;;;5077889;28;20488;-73
2021/06/22 01:38:55;;;;;;;0.10;0.10;;;18.10;99.90;;;;;;5055681;28;20021;-73
2021/06/22 01:41:21;;;;;;;0.10;0.10;;;18.10;99.90;;;;;;5056483;28;20376;-73
2021/06/22 01:43:46;;;;;;;0.03;0.03;;;18.20;99.90;;;;;;5074389;28;20028;-73
2021/06/22 01:46:12;;;;;;;0.10;0.10;;;18.00;99.90;;;;;;5056596;28;20021;-72
2021/06/22 01:48:38;;;;;;;0.00;0.00;;;17.80;99.90;;;;;;5074298;28;20028;-73
2021/06/22 01:51:04;;;;;;;0.00;0.00;;;17.60;99.90;;;;;;5056628;28;20108;-73
2021/06/22 01:53:30;;;;;;;0.10;0.10;;;17.70;99.90;;;;;;5074381;28;20028;-73
2021/06/22 01:55:56;;;;;;;0.15;0.15;;;17.80;99.90;;;;;;5056553;28;20027;-73
2021/06/22 01:58:22;;;;;;;0.10;0.10;;;17.90;99.90;;;;;;5074100;28;20027;-73
2021/06/22 02:00:55;;;;;;;0.10;0.10;;;17.70;99.90;;;;;;5074379;28;20107;-73
2021/06/22 02:03:25;;;;;;;0.13;0.13;;;17.70;99.90;;;;;;5056134;28;20029;-73
2021/06/22 02:05:51;;;;;;;0.00;0.00;;;17.80;99.90;;;;;;5056369;28;20032;-73
2021/06/22 02:08:18;;;;;;;0.10;0.10;;;17.70;99.90;;;;;;5073992;28;20025;-73
2021/06/22 02:10:45;;;;;;;0.10;0.10;;;17.60;99.90;;;;;;5056237;28;20032;-73
2021/06/22 02:13:12;;;;;;;0.10;0.10;;;17.90;99.90;;;;;;5055916;28;20035;-73
2021/06/22 02:15:39;;;;;;;1.38;0.57;;;18.20;99.90;;;;;;5074014;28;20029;-73
2021/06/22 02:18:06;;;;;;;3.03;1.40;;;18.20;99.90;;;;;;5073836;28;20074;-73
2021/06/22 02:20:32;;;;;;;0.10;0.10;;;18.40;99.90;;;;;;5073943;28;20029;-73
2021/06/22 02:22:58;;;;;;;0.03;0.03;;;18.50;99.90;;;;;;5073767;28;20036;-73
2021/06/22 02:25:23;;;;;;;0.10;0.10;;;18.40;99.90;;;;;;5039291;28;20464;-73
2021/06/22 02:27:49;;;;;;;0.10;0.10;;;18.50;99.90;;;;;;5073665;28;20472;-73
2021/06/22 02:30:18;;;;;;;0.10;0.10;;;18.50;99.90;;;;;;5073741;28;20017;-73
2021/06/22 02:32:44;;;;;;;0.00;0.00;;;18.70;99.90;;;;;;5073518;28;20075;-73
2021/06/22 02:35:12;;;;;;;0.10;0.10;;;18.70;99.90;;;;;;5055643;28;20067;-73
2021/06/22 02:37:39;;;;;;;0.10;0.10;;;18.80;99.90;;;;;;5073373;28;20025;-73
2021/06/22 02:40:07;;;;;;;0.10;0.10;;;18.60;99.90;;;;;;5055705;28;20031;-73
2021/06/22 02:42:33;;;;;;;0.10;0.10;;;18.60;99.90;;;;;;5073557;28;20025;-73
2021/06/22 02:44:59;;;;;;;0.10;0.10;;;18.50;99.90;;;;;;5073104;28;20032;-73
2021/06/22 02:47:25;;;;;;;0.03;0.03;;;18.30;99.90;;;;;;5073260;28;20078;-73
2021/06/22 02:49:51;;;;;;;0.10;0.10;;;18.20;99.90;;;;;;5073196;28;20032;-73
2021/06/22 02:52:17;;;;;;;0.10;0.10;;;18.20;99.90;;;;;;5073237;28;20524;-73
2021/06/22 02:54:43;;;;;;;0.10;0.10;;;18.30;99.90;;;;;;5055316;28;20127;-73
2021/06/22 02:57:10;;;;;;;0.10;0.10;;;18.40;99.90;;;;;;5055142;28;20181;-73
2021/06/22 02:59:38;;;;;;;0.03;0.03;;;18.50;99.90;;;;;;5055067;28;20025;-73
2021/06/22 03:02:05;;;;;;;0.10;0.10;;;18.60;99.90;;;;;;5072858;28;20029;-73
2021/06/22 03:04:31;;;;;;;0.10;0.10;;;18.70;99.90;;;;;;5038552;28;20061;-73
2021/06/22 03:06:57;;;;;;;0.10;0.10;;;18.70;99.90;;;;;;5072943;28;20461;-73
2021/06/22 03:09:24;;;;;;;0.10;0.10;;;18.90;99.90;;;;;;5072758;28;20025;-72
2021/06/22 03:11:51;;;;;;;0.10;0.10;;;18.90;99.90;;;;;;5055048;28;20071;-73
2021/06/22 03:14:17;;;;;;;0.57;0.30;;;18.70;99.90;;;;;;5072729;28;20033;-73
2021/06/22 03:16:44;;;;;;;0.10;0.10;;;18.50;99.90;;;;;;5054986;28;20383;-73
2021/06/22 03:19:10;;;;;;;0.10;0.10;;;18.60;99.90;;;;;;5072460;28;20025;-73
2021/06/22 03:21:36;;;;;;;0.10;0.10;;;18.50;99.90;;;;;;5054591;28;20024;-73
2021/06/22 03:24:03;;;;;;;2.78;1.90;;;18.60;99.90;;;;;;5054845;28;20111;-73
2021/06/22 03:26:29;;;;;;;0.10;0.10;;;18.80;99.90;;;;;;5038203;28;20087;-73
2021/06/22 03:28:54;;;;;;;0.20;0.20;;;18.90;99.90;;;;;;5072389;28;20024;-73
2021/06/22 03:31:21;;;;;;;0.10;0.10;;;19.10;99.90;;;;;;5072189;28;20042;-73
2021/06/22 03:33:47;;;;;;;0.10;0.10;;;19.00;99.90;;;;;;5072426;28;20441;-73
2021/06/22 03:36:12;;;;;;;0.00;0.00;;;19.00;99.90;;;;;;5072390;28;20052;-73
2021/06/22 03:38:38;;;;;;;0.00;0.00;;;19.10;99.90;;;;;;5072173;28;20028;-73
2021/06/22 03:41:04;;;;;;;0.10;0.10;;;19.20;99.90;;;;;;5072184;28;20464;-73
2021/06/22 03:43:30;;;;;;;0.10;0.10;;;19.20;99.90;;;;;;5054161;28;20515;-73
2021/06/22 03:45:56;;;;;;;0.00;0.00;;;19.10;99.90;;;;;;5072299;28;20487;-73
2021/06/22 03:48:21;;;;;;;0.08;0.08;;;19.10;99.90;;;;;;5054285;28;20028;-73
2021/06/22 03:50:47;;;;;;;0.10;0.10;;;19.10;99.90;;;;;;5072363;28;20027;-73
2021/06/22 03:53:13;;;;;;;0.05;0.05;;;19.00;99.90;;;;;;5072083;28;20472;-74
2021/06/22 03:55:39;;;;;;;0.10;0.10;;;19.10;99.90;;;;;;5072123;28;20025;-73
2021/06/22 03:58:06;;;;;;;0.10;0.10;;;19.10;99.90;;;;;;5053869;28;20024;-73
2021/06/22 04:00:32;;;;;;;0.10;0.10;;;19.10;99.90;;;;;;5071715;28;20078;-73
2021/06/22 04:03:00;;;;;;;0.10;0.10;;;19.20;99.90;;;;;;5071955;28;20032;-73
2021/06/22 04:05:27;;;;;;;0.10;0.10;;;19.20;99.90;;;;;;5054160;28;20388;-73
2021/06/22 04:07:52;;;;;;;0.10;0.10;;;19.10;99.90;;;;;;5071765;28;20021;-73
2021/06/22 04:10:19;;;;;;;0.10;0.10;;;19.20;99.90;;;;;;5071858;28;20016;-73
2021/06/22 04:12:45;;;;;;;0.10;0.10;;;19.20;99.90;;;;;;5071892;28;20392;-73
2021/06/22 04:15:12;;;;;;;0.00;0.00;;;19.20;99.90;;;;;;5053949;28;20024;-73
2021/06/22 04:17:37;;;;;;;0.10;0.10;;;19.30;99.90;;;;;;5071712;28;20032;-73
2021/06/22 04:20:05;;;;;;;0.10;0.10;;;19.20;99.90;;;;;;5053963;28;20024;-73
2021/06/22 04:22:31;;;;;;;0.10;0.10;;;19.20;99.90;;;;;;5071704;28;20048;-73
2021/06/22 04:24:57;;;;;;;0.03;0.03;;;19.20;99.90;;;;;;5071874;28;20085;-73
2021/06/22 04:27:23;;;;;;;0.10;0.10;;;19.00;99.90;;;;;;5071475;28;20099;-73
2021/06/22 04:29:48;;;;;;;0.00;0.00;;;18.80;99.90;;;;;;5053903;28;20412;-73
2021/06/22 04:32:14;;;;;;;0.10;0.10;;;18.90;99.90;;;;;;5053523;28;20113;-73
2021/06/22 04:34:40;;;;;;;0.10;0.10;;;19.00;99.90;;;;;;5053717;28;20094;-73
2021/06/22 04:37:06;;;;;;;0.10;0.10;;;19.10;99.90;;;;;;5071683;28;20021;-74
2021/06/22 04:39:32;;;;;;;0.10;0.10;;;19.20;99.90;;;;;;5053517;28;20028;-73
2021/06/22 04:41:58;;;;;;;0.20;0.20;;;19.20;99.90;;;;;;5071495;28;20024;-73
2021/06/22 04:44:24;;;;;;;0.10;0.10;;;19.20;99.90;;;;;;5053376;28;20027;-73
2021/06/22 04:46:49;;;;;;;0.10;0.10;;;19.30;99.90;;;;;;5071627;28;20056;-73
2021/06/22 04:49:15;;;;;;;0.10;0.10;;;19.40;99.90;;;;;;5053403;28;20537;-73
2021/06/22 04:51:41;;;;;;;0.00;0.00;;;19.50;99.90;;;;;;5053476;28;20028;-73
2021/06/22 04:54:09;;;;;;;0.10;0.10;;;19.50;99.90;;;;;;5071537;28;20035;-73
2021/06/22 04:56:36;;;;;;;0.03;0.03;;;19.30;99.90;;;;;;5071435;28;20025;-73
2021/06/22 04:59:01;;;;;;;0.25;0.25;;;19.20;99.90;;;;;;5071236;28;20483;-73
2021/06/22 05:01:27;;;;;;;0.10;0.10;;;19.00;99.90;;;;;;5071155;28;20024;-73
2021/06/22 05:03:53;;;;;;;0.10;0.10;;;18.80;99.90;;;;;;5053392;28;20055;-73
2021/06/22 05:06:20;;;;;;;0.10;0.10;;;18.90;99.90;;;;;;5071383;28;20044;-73
2021/06/22 05:08:45;;;;;;;0.10;0.10;;;19.10;99.90;;;;;;5071330;28;20476;-73
2021/06/22 05:11:11;;;;;;;0.10;0.10;;;19.10;99.90;;;;;;5071355;28;20024;-73
2021/06/22 05:13:37;;;;;;;0.10;0.10;;;19.30;99.90;;;;;;5073318;28;20051;-73
2021/06/22 05:16:03;;;;;;;0.00;0.00;;;19.50;99.90;;;;;;5074952;28;20035;-73
2021/06/22 05:18:29;;;;;;;0.10;0.10;;;19.70;99.90;;;;;;5056849;28;20029;-73
2021/06/22 05:20:56;;;;;;;5.38;1.38;;;19.70;99.90;;;;;;5074781;28;20020;-73
2021/06/22 05:23:21;;;;;;;0.00;0.00;;;19.80;99.90;;;;;;5056738;28;20480;-73
2021/06/22 05:25:47;;;;;;;0.00;0.00;;;19.80;99.90;;;;;;5056785;28;20027;-73
2021/06/22 05:28:13;;;;;;;0.10;0.10;;;19.90;99.90;;;;;;5074577;28;20392;-73
2021/06/22 05:30:39;;;;;;;0.10;0.10;;;19.90;99.90;;;;;;5056609;28;20090;-73
2021/06/22 05:33:06;;;;;;;0.10;0.10;;;20.00;99.90;;;;;;5074597;28;20112;-73
2021/06/22 05:35:33;;;;;;;0.10;0.10;;;20.00;99.90;;;;;;5054775;28;20028;-73
2021/06/22 05:37:59;;;;;;;0.00;0.00;;;20.00;99.90;;;;;;5089002;28;20027;-73
2021/06/22 05:40:25;;;;;;;0.05;0.05;;;20.00;99.90;;;;;;5074593;28;20032;-73
2021/06/22 05:42:51;;;;;;;0.00;0.00;;;20.10;99.90;;;;;;5089615;28;20491;-73
2021/06/22 05:45:17;;;;;;;0.10;0.10;;;20.30;99.90;;;;;;5094399;28;20054;-73
2021/06/22 05:47:43;;;;;;;0.10;0.10;;;20.40;99.90;;;;;;5090454;28;20091;-73
2021/06/22 05:50:10;;;;;;;0.00;0.00;;;20.60;99.90;;;;;;5074586;28;20029;-73
2021/06/22 05:52:36;;;;;;;0.10;0.10;;;20.80;99.90;;;;;;5074290;28;20103;-73
2021/06/22 05:55:03;;;;;;;0.00;0.00;;;20.70;99.90;;;;;;5056424;28;20024;-73
2021/06/22 05:57:29;;;;;;;0.10;0.10;;;20.80;99.90;;;;;;5056144;28;20032;-73
2021/06/22 05:59:55;;;;;;;0.10;0.10;;;20.80;99.90;;;;;;5073938;28;20032;-73
2021/06/22 06:02:21;;;;;;;0.10;0.10;;;20.80;99.90;;;;;;5073971;28;20090;-73
2021/06/22 06:04:47;;;;;;;0.00;0.00;;;21.00;99.90;;;;;;5074181;28;20036;-73
2021/06/22 06:07:12;;;;;;;0.40;0.40;;;21.10;99.90;;;;;;5074035;28;20047;-73
2021/06/22 06:09:38;;;;;;;0.10;0.10;;;21.20;99.90;;;;;;5073959;28;20024;-75
2021/06/22 06:12:04;;;;;;;0.00;0.00;;;21.10;99.90;;;;;;5073947;28;20028;-74
2021/06/22 06:14:30;;;;;;;0.00;0.00;;;21.30;99.90;;;;;;5055848;28;20087;-75
2021/06/22 06:16:56;;;;;;;0.08;0.08;;;21.40;99.90;;;;;;5074144;28;20452;-74
2021/06/22 06:19:22;;;;;;;0.00;0.00;;;21.50;99.90;;;;;;5055853;28;20025;-74
2021/06/22 06:21:49;;;;;;;0.10;0.10;;;21.60;99.90;;;;;;5055914;28;20390;-74
2021/06/22 06:24:14;;;;;;;0.00;0.00;;;21.40;99.90;;;;;;5073261;28;20107;-71
2021/06/22 06:26:52;;;;;;;0.00;0.00;;;21.50;99.90;;;;;;5055890;28;20059;-71
2021/06/22 06:29:39;;;;;;;0.08;0.08;;;21.60;99.90;;;;;;5073381;28;20534;-71
2021/06/22 06:32:05;;;;;;;0.10;0.10;;;21.50;99.70;;;;;;5073248;28;20038;-70
2021/06/22 06:34:30;;;;;;;0.00;0.00;;;21.80;99.40;;;;;;5073722;28;20480;-71
2021/06/22 06:36:56;;;;;;;0.10;0.10;;;22.10;97.80;;;;;;5073414;28;20029;-71
2021/06/22 06:39:22;;;;;;;0.00;0.00;;;22.20;94.60;;;;;;5055313;28;20377;-71
2021/06/22 06:41:48;;;;;;;0.00;0.00;;;22.40;93.70;;;;;;5073173;28;20811;-71
2021/06/22 06:44:13;;;;;;;0.10;0.10;;;22.40;94.00;;;;;;5073443;28;20074;-71
2021/06/22 06:46:39;;;;;;;0.00;0.00;;;22.50;93.00;;;;;;5073363;28;20388;-71
2021/06/22 06:49:05;;;;;;;0.00;0.00;;;22.50;91.50;;;;;;5055165;28;20039;-70
2021/06/22 06:51:30;;;;;;;0.00;0.00;;;22.60;91.80;;;;;;5073061;28;20039;-71
2021/06/22 06:53:56;;;;;;;0.00;0.00;;;22.60;91.90;;;;;;5073023;28;20040;-71
2021/06/22 06:56:22;;;;;;;0.00;0.00;;;22.50;91.50;;;;;;5073070;28;20029;-71
2021/06/22 06:58:48;;;;;;;0.10;0.10;;;22.50;90.70;;;;;;5073228;28;20484;-71
2021/06/22 07:01:15;;;;;;;0.17;0.17;;;22.50;91.20;;;;;;5061745;28;20017;-73
2021/06/22 07:03:43;;;;;;;0.40;0.40;;;22.60;90.90;;;;;;5087222;28;20024;-72
2021/06/22 07:06:09;;;;;;;0.00;0.00;;;22.50;90.90;;;;;;5086061;28;20379;-72
2021/06/22 07:08:35;;;;;;;0.00;0.00;;;22.60;91.10;;;;;;5081047;28;20020;-73
2021/06/22 07:11:01;;;;;;;0.00;0.00;;;22.80;91.80;;;;;;5079273;28;20019;-73
2021/06/22 07:13:27;;;;;;;0.00;0.00;;;22.70;90.30;;;;;;5079500;28;20043;-73
2021/06/22 07:15:53;;;;;;;0.10;0.10;;;22.60;90.00;;;;;;5079139;28;20047;-73
2021/06/22 07:18:18;;;;;;;2.33;0.50;;;22.70;91.20;;;;;;5059440;28;20415;-73
2021/06/22 07:20:44;;;;;;;0.55;0.05;;;22.70;91.30;;;;;;5085270;28;20028;-73
2021/06/22 07:23:10;;;;;;;0.00;0.00;;;22.70;91.70;;;;;;5085979;28;20070;-73
2021/06/22 07:25:36;;;;;;;0.10;0.10;;;22.80;90.60;;;;;;5081321;28;20032;-73
2021/06/22 07:28:01;;;;;;;0.28;0.28;;;22.90;90.00;;;;;;5079277;28;20117;-72
2021/06/22 07:30:27;;;;;;;0.22;0.22;;;23.10;88.50;;;;;;5083093;28;20024;-73
2021/06/22 07:32:55;;;;;;;0.00;0.00;;;23.00;85.60;;;;;;5086545;28;20028;-72
2021/06/22 07:35:22;;;;;;;0.30;0.20;;;22.90;88.90;;;;;;5080859;28;20107;-73
2021/06/22 07:37:48;;;;;;;0.22;0.20;;;23.00;87.40;;;;;;5077709;28;20059;-73
2021/06/22 07:40:15;;;;;;;0.00;0.00;;;23.00;88.80;;;;;;5047144;28;20067;-72
2021/06/22 07:42:41;;;;;;;0.10;0.10;;;23.10;87.70;;;;;;5069364;28;20029;-72
2021/06/22 07:45:07;;;;;;;0.30;0.08;;;23.10;87.70;;;;;;5081786;28;20479;-72
2021/06/22 07:47:33;;;;;;;2.75;0.25;;;23.00;88.20;;;;;;5053664;28;20789;-73
2021/06/22 07:49:59;;;;;;;0.00;0.00;;;23.30;88.30;;;;;;5081123;28;20103;-73
2021/06/22 07:52:25;;;;;;;0.95;0.70;;;23.40;87.70;;;;;;5078427;28;20024;-72
2021/06/22 07:54:51;;;;;;;0.05;0.03;;;23.50;88.30;;;;;;5081597;28;20440;-73
2021/06/22 07:57:17;;;;;;;0.10;0.10;;;23.80;88.60;;;;;;5080743;28;20112;-73
2021/06/22 07:59:42;;;;;;;1.08;0.57;;;24.20;86.00;;;;;;5086296;28;20028;-72
2021/06/22 08:02:08;;;;;;;0.17;0.17;;;24.30;83.10;;;;;;5081372;28;20028;-73
2021/06/22 08:04:34;;;;;;;0.10;0.10;;;24.40;83.00;;;;;;5058135;28;20020;-73
2021/06/22 08:07:00;;;;;;;0.00;0.00;;;24.50;83.90;;;;;;5076964;28;20108;-73
2021/06/22 08:09:26;;;;;;;2.85;1.40;;;24.60;83.20;;;;;;5082428;28;20082;-72
2021/06/22 08:11:52;;;;;;;1.70;1.60;;;24.70;81.70;;;;;;5085190;28;20024;-72
2021/06/22 08:14:18;;;;;;;2.88;0.28;;;24.30;81.10;;;;;;5063626;28;20024;-72
2021/06/22 08:16:43;;;;;;;0.10;0.10;;;24.40;81.20;;;;;;5076870;28;20021;-72
2021/06/22 08:19:10;;;;;;;0.30;0.30;;;24.50;81.00;;;;;;5080484;28;20070;-72
2021/06/22 08:21:37;;;;;;;0.80;0.55;;;24.70;78.90;;;;;;5054556;28;20158;-72
2021/06/22 08:24:04;;;;;;;2.28;0.52;;;24.90;78.50;;;;;;5080628;28;20025;-73
2021/06/22 08:26:30;;;;;;;0.00;0.00;;;24.80;78.60;;;;;;5082142;28;20070;-72
2021/06/22 08:28:55;;;;;;;0.00;0.00;;;25.00;78.00;;;;;;5063102;28;20456;-72
2021/06/22 08:31:22;;;;;;;0.10;0.10;;;25.20;77.70;;;;;;5076639;28;20032;-72
2021/06/22 08:33:47;;;;;;;0.10;0.10;;;25.10;77.20;;;;;;5058376;28;20021;-73
2021/06/22 08:36:14;;;;;;;0.30;0.30;;;25.20;76.30;;;;;;5084970;28;20365;-73
2021/06/22 08:38:40;;;;;;;0.00;0.00;;;25.30;77.20;;;;;;5063666;28;20507;-73
2021/06/22 08:41:07;;;;;;;0.00;0.00;;;25.30;78.40;;;;;;5062431;28;20028;-72
2021/06/22 08:43:33;;;;;;;0.45;0.25;;;25.40;76.80;;;;;;5083600;28;20024;-73
2021/06/22 08:46:06;;;;;;;0.30;0.30;;;25.70;72.70;;;;;;5081728;28;20105;-73
2021/06/22 08:48:33;;;;;;;0.13;0.10;;;25.80;72.90;;;;;;5075743;28;20153;-73
2021/06/22 08:50:59;;;;;;;0.00;0.00;;;25.70;72.80;;;;;;5059084;28;20025;-72
2021/06/22 08:53:24;;;;;;;0.00;0.00;;;25.80;72.60;;;;;;5081631;28;20051;-73
2021/06/22 08:55:50;;;;;;;0.43;0.20;;;25.90;73.00;;;;;;5086076;28;20036;-73
2021/06/22 08:58:18;;;;;;;1.35;0.82;;;26.00;72.00;;;;;;5069295;28;20075;-72
2021/06/22 09:00:49;;;;;;;0.05;0.05;;;25.90;71.20;;;;;;5070884;28;20032;-73
2021/06/22 09:03:23;;;;;;;0.10;0.10;;;25.90;73.30;;;;;;5085090;28;20035;-72
2021/06/22 09:05:50;;;;;;;0.22;0.20;;;26.00;71.30;;;;;;5085042;28;20024;-72
2021/06/22 09:08:21;;;;;;;3.63;0.90;;;26.00;70.90;;;;;;5084407;28;20035;-73
2021/06/22 09:10:49;;;;;;;0.30;0.30;;;25.70;72.50;;;;;;5079375;28;20024;-73
2021/06/22 09:13:18;;;;;;;0.52;0.20;;;26.00;72.30;;;;;;5084581;28;20082;-72
2021/06/22 09:15:45;;;;;;;0.40;0.40;;;26.20;71.00;;;;;;5079516;28;20070;-72
2021/06/22 09:18:33;;;;;;;0.10;0.10;;;26.00;70.40;;;;;;5065110;28;20051;-73
2021/06/22 09:21:09;;;;;;;0.65;0.38;;;25.90;72.10;;;;;;5062740;28;20107;-72
2021/06/22 09:23:37;;;;;;;0.95;0.77;;;25.80;71.60;;;;;;5083528;28;20038;-73
2021/06/22 09:26:27;;;;;;;0.00;0.00;;;26.10;70.80;;;;;;5086443;28;20027;-72
2021/06/22 09:29:07;;;;;;;1.67;0.10;;;26.40;70.70;;;;;;5077584;28;20024;-73
2021/06/22 09:31:33;;;;;;;0.00;0.00;;;26.10;71.20;;;;;;5065755;28;20040;-73
2021/06/22 09:33:59;;;;;;;0.10;0.10;;;26.50;71.70;;;;;;5087001;28;20024;-73
2021/06/22 09:36:27;;;;;;;0.00;0.00;;;27.20;68.30;;;;;;5085631;28;20043;-73
2021/06/22 09:38:53;;;;;;;0.00;0.00;;;27.00;68.50;;;;;;5085526;28;20360;-73
2021/06/22 09:41:21;;;;;;;0.10;0.10;;;26.60;69.50;;;;;;5083387;28;20096;-73
2021/06/22 09:43:50;;;;;;;0.08;0.08;;;26.40;70.40;;;;;;5080416;28;20025;-73
2021/06/22 09:46:29;;;;;;;0.30;0.30;;;26.60;69.40;;;;;;5079193;28;20024;-73
2021/06/22 09:48:56;;;;;;;2.95;0.22;;;27.00;67.30;;;;;;5066884;28;20022;-73
2021/06/22 09:51:30;;;;;;;0.10;0.10;;;27.20;67.40;;;;;;5065669;28;20032;-73
2021/06/22 09:54:08;;;;;;;0.00;0.00;;;27.10;67.80;;;;;;5078927;28;20416;-74
2021/06/22 09:56:34;;;;;;;0.00;0.00;;;27.50;66.90;;;;;;5066099;28;20051;-73
2021/06/22 09:59:07;;;;;;;3.70;0.47;;;27.70;66.00;;;;;;5076631;28;20126;-73
2021/06/22 10:01:35;;;;;;;2.60;1.00;;;27.90;64.30;;;;;;5070059;28;20593;-71
2021/06/22 10:04:14;;;;;;;0.00;0.00;;;27.90;64.00;;;;;;5073643;28;20018;-71
2021/06/22 10:06:47;;;;;;;0.00;0.00;;;28.10;63.80;;;;;;5059247;28;20032;-71
2021/06/22 10:09:18;;;;;;;0.00;0.00;;;28.40;63.30;;;;;;5086941;28;20089;-71
2021/06/22 10:11:44;;;;;;;0.00;0.00;;;28.20;61.90;;;;;;5073628;28;20028;-73
2021/06/22 10:14:23;;;;;;;1.25;0.30;;;27.80;62.30;;;;;;5086974;28;20175;-71
2021/06/22 10:16:49;;;;;;;0.10;0.10;;;27.90;62.50;;;;;;5093297;28;20043;-71
2021/06/22 10:19:14;;;;;;;6.03;0.30;;;28.20;62.00;;;;;;5074363;28;20028;-71
2021/06/22 10:21:40;;;;;;;0.08;0.08;;;28.60;61.30;;;;;;5064324;28;20024;-71
2021/06/22 10:24:07;;;;;;;0.22;0.22;;;28.60;61.60;;;;;;5076709;28;20035;-71
2021/06/22 10:26:33;;;;;;;0.00;0.00;;;28.60;59.70;;;;;;5072954;28;20150;-71
2021/06/22 10:29:00;;;;;;;0.85;0.28;;;28.40;60.70;;;;;;5072078;28;20091;-71
2021/06/22 10:31:29;;;;;;;0.00;0.00;;;28.50;60.40;;;;;;5090162;28;20066;-70
2021/06/22 10:33:56;;;;;;;1.10;0.47;;;28.70;59.20;;;;;;5084501;28;20077;-71
2021/06/22 10:36:47;;;;;;;4.13;0.85;;;28.50;60.00;;;;;;5073496;28;20017;-72
2021/06/22 10:39:19;;;;;;;0.25;0.20;;;27.90;61.80;;;;;;5078964;28;20033;-73
2021/06/22 10:41:46;;;;;;;0.00;0.00;;;28.20;62.50;;;;;;5078206;28;20020;-73
2021/06/22 10:44:24;;;;;;;1.08;0.30;;;28.40;60.70;;;;;;5056231;28;20044;-73
2021/06/22 10:47:25;;;;;;;0.00;0.00;;;28.60;61.80;;;;;;5082794;28;20039;-73
2021/06/22 10:50:03;;;;;;;0.00;0.00;;;29.00;60.60;;;;;;5063861;28;20024;-73
2021/06/22 10:55:18;;;;;;;0.10;0.08;;;29.60;60.50;;;;;;5083360;28;20488;-73
2021/06/22 10:58:11;;;;;;;0.35;0.35;;;28.90;60.80;;;;;;5079369;28;20550;-71
2021/06/22 11:00:39;;;;;;;0.82;0.82;;;28.90;61.00;;;;;;5086001;28;20020;-71
2021/06/22 11:03:06;;;;;;;0.00;0.00;;;29.00;58.10;;;;;;5085530;28;20016;-73
2021/06/22 11:05:37;;;;;;;0.10;0.10;;;29.40;58.00;;;;;;5082451;28;20468;-73
2021/06/22 11:08:11;;;;;;;0.00;0.00;;;29.50;57.20;;;;;;5073985;28;20388;-71
2021/06/22 11:10:41;;;;;;;0.20;0.20;;;28.80;59.50;;;;;;5078294;28;20051;-71
2021/06/22 11:13:07;;;;;;;0.00;0.00;;;28.60;60.20;;;;;;5071859;28;20033;-71
2021/06/22 11:15:48;;;;;;;0.65;0.60;;;28.40;60.10;;;;;;5081186;28;20020;-71
2021/06/22 11:18:18;;;;;;;0.00;0.00;;;28.10;60.50;;;;;;5074636;28;20023;-73
2021/06/22 11:21:03;;;;;;;0.00;0.00;;;28.30;61.10;;;;;;5080242;28;20089;-72
2021/06/22 11:23:29;;;;;;;0.77;0.73;;;28.50;60.90;;;;;;5047554;28;20036;-71
2021/06/22 11:26:03;;;;;;;0.00;0.00;;;28.50;60.20;;;;;;5074956;28;20484;-71
2021/06/22 11:28:53;;;;;;;0.00;0.00;;;29.00;59.90;;;;;;5059547;28;20115;-71
2021/06/22 11:31:41;;;;;;;0.30;0.30;;;29.10;59.20;;;;;;5080617;28;20147;-71
2021/06/22 11:34:12;;;;;;;1.75;0.55;;;28.70;60.30;;;;;;5091282;28;20035;-71
2021/06/22 11:36:39;;;;;;;0.00;0.00;;;28.10;61.00;;;;;;5086647;28;20024;-71
2021/06/22 11:39:06;;;;;;;1.20;0.30;;;27.80;63.20;;;;;;5078135;28;20100;-71
2021/06/22 11:41:32;;;;;;;0.20;0.20;;;27.70;63.70;;;;;;5088225;28;20232;-71
2021/06/22 11:44:07;;;;;;;0.50;0.50;;;27.50;65.10;;;;;;5081749;28;20025;-71
2021/06/22 11:46:34;;;;;;;0.10;0.10;;;27.40;64.60;;;;;;5070609;28;20044;-71
2021/06/22 11:49:01;;;;;;;0.32;0.32;;;27.30;65.20;;;;;;5089196;28;20020;-71
2021/06/22 11:51:51;;;;;;;0.00;0.00;;;27.50;64.60;;;;;;5073187;28;20504;-71
2021/06/22 11:57:20;;;;;;;0.10;0.10;;;27.50;62.30;;;;;;5067704;28;20073;-71
2021/06/22 11:59:46;;;;;;;0.45;0.20;;;27.60;63.70;;;;;;5085988;28;20021;-73
2021/06/22 12:02:14;;;;;;;0.77;0.43;;;27.80;63.80;;;;;;5070442;28;20480;-72
2021/06/22 12:04:41;;;;;;;0.03;0.03;;;28.10;62.80;;;;;;5076615;28;20024;-72
2021/06/22 12:07:09;;;;;;;16.35;1.00;;;28.20;62.80;;;;;;5076338;28;20021;-73
2021/06/22 12:09:38;;;;;;;1.55;0.52;;;28.50;61.70;;;;;;5067910;28;20109;-72
2021/06/22 12:12:05;;;;;;;0.47;0.47;;;28.40;60.60;;;;;;5085836;28;20372;-73
2021/06/22 12:14:31;;;;;;;0.75;0.43;;;28.20;61.40;;;;;;5081028;28;20032;-72
2021/06/22 12:16:58;;;;;;;0.10;0.10;;;28.40;61.20;;;;;;5058731;28;20028;-72
2021/06/22 12:19:24;;;;;;;0.00;0.00;;;28.20;60.10;;;;;;5077482;28;20031;-72
2021/06/22 12:21:52;;;;;;;0.17;0.17;;;27.80;64.20;;;;;;5075423;28;20037;-72
2021/06/22 12:24:20;;;;;;;0.65;0.38;;;27.70;65.50;;;;;;5081035;28;20023;-72
2021/06/22 12:26:52;;;;;;;0.03;0.03;;;27.30;64.80;;;;;;5075775;28;20016;-73
2021/06/22 12:29:30;;;;;;;8.20;5.18;;;27.20;66.80;;;;;;5059374;28;20387;-72
2021/06/22 12:31:58;;;;;;;0.10;0.10;;;26.90;68.20;;;;;;5078442;28;20032;-72
2021/06/22 12:34:26;;;;;;;0.17;0.17;;;26.70;69.60;;;;;;5085431;28;20587;-72
2021/06/22 12:36:53;;;;;;;0.15;0.13;;;26.80;69.40;;;;;;5062354;28;20031;-72
2021/06/22 12:39:21;;;;;;;0.20;0.20;;;26.30;69.70;;;;;;5067667;28;20024;-72
2021/06/22 12:41:47;;;;;;;0.00;0.00;;;26.30;70.70;;;;;;5047035;28;20028;-72
2021/06/22 12:44:14;;;;;;;0.52;0.52;;;26.50;70.60;;;;;;5080667;28;20017;-72
2021/06/22 12:46:42;;;;;;;0.10;0.10;;;26.50;69.50;;;;;;5073487;28;20024;-73
2021/06/22 12:49:10;;;;;;;0.00;0.00;;;26.60;69.70;;;;;;5066164;28;20025;-72
2021/06/22 12:51:48;;;;;;;0.40;0.15;;;26.70;69.70;;;;;;5074628;28;20028;-75
2021/06/22 12:54:15;;;;;;;0.13;0.13;;;26.50;69.60;;;;;;5080315;28;20016;-73
2021/06/22 12:56:55;;;;;;;0.95;0.20;;;26.60;70.40;;;;;;5080515;28;20027;-73
2021/06/22 12:59:22;;;;;;;8.32;0.32;;;26.50;69.30;;;;;;5059151;28;20067;-73